sensor_id;sensor_type;location;lat;lon;timestamp;noise_LAeq;noise_LA_min;noise_LA_max;noise_LA01;noise_LA95
59284;Laerm;45056;47.602;9.886;2023-07-02T00:11:43;42.24;38.21;54.30;;
59284;Laerm;45056;47.602;9.886;2023-07-02T00:14:58;41.33;37.12;48.10;;
59284;Laerm;45056;47.602;9.886;2023-07-02T00:18:31;42.97;37.70;56.33;;
59284;Laerm;45056;47.602;9.886;2023-07-02T00:26:27;40.22;33.90;55.43;;
59284;Laerm;45056;47.602;9.886;2023-07-02T00:34:04;41.28;36.45;51.49;;
59284;Laerm;45056;47.602;9.886;2023-07-02T00:45:15;45.96;41.88;56.04;;
59284;Laerm;45056;47.602;9.886;2023-07-02T00:47:45;50.55;45.75;53.70;;
59284;Laerm;45056;47.602;9.886;2023-07-02T00:50:13;49.85;45.39;62.56;;
59284;Laerm;45056;47.602;9.886;2023-07-02T00:52:42;51.99;44.65;56.51;;
59284;Laerm;45056;47.602;9.886;2023-07-02T00:55:10;55.00;52.24;58.69;;
59284;Laerm;45056;47.602;9.886;2023-07-02T00:58:05;51.44;47.42;58.68;;
59284;Laerm;45056;47.602;9.886;2023-07-02T01:01:01;47.25;42.98;55.81;;
59284;Laerm;45056;47.602;9.886;2023-07-02T01:04:04;44.69;42.03;48.99;;
59284;Laerm;45056;47.602;9.886;2023-07-02T01:09:35;47.80;45.01;56.82;;
59284;Laerm;45056;47.602;9.886;2023-07-02T01:12:35;47.52;44.27;54.18;;
59284;Laerm;45056;47.602;9.886;2023-07-02T01:42:40;44.38;41.14;52.00;;
59284;Laerm;45056;47.602;9.886;2023-07-02T01:46:41;57.02;42.64;63.78;;
59284;Laerm;45056;47.602;9.886;2023-07-02T01:49:40;51.94;48.40;63.32;;
59284;Laerm;45056;47.602;9.886;2023-07-02T01:52:48;53.26;50.65;57.03;;
59284;Laerm;45056;47.602;9.886;2023-07-02T01:56:30;54.75;50.80;64.42;;
59284;Laerm;45056;47.602;9.886;2023-07-02T01:59:50;50.33;44.97;56.80;;
59284;Laerm;45056;47.602;9.886;2023-07-02T02:27:29;41.18;38.37;46.38;;
59284;Laerm;45056;47.602;9.886;2023-07-02T02:30:37;41.66;37.32;54.56;;
59284;Laerm;45056;47.602;9.886;2023-07-02T02:33:38;40.75;37.12;46.30;;
59284;Laerm;45056;47.602;9.886;2023-07-02T02:37:06;40.37;37.32;45.17;;
59284;Laerm;45056;47.602;9.886;2023-07-02T02:48:32;43.63;39.21;57.98;;
59284;Laerm;45056;47.602;9.886;2023-07-02T02:54:47;42.50;38.95;51.67;;
59284;Laerm;45056;47.602;9.886;2023-07-02T02:57:24;48.62;45.07;52.67;;
59284;Laerm;45056;47.602;9.886;2023-07-02T02:59:54;46.35;42.53;57.58;;
59284;Laerm;45056;47.602;9.886;2023-07-02T03:02:37;46.39;41.53;56.64;;
59284;Laerm;45056;47.602;9.886;2023-07-02T03:05:26;44.34;40.89;50.56;;
59284;Laerm;45056;47.602;9.886;2023-07-02T03:09:01;45.15;40.43;52.68;;
59284;Laerm;45056;47.602;9.886;2023-07-02T03:12:14;43.75;39.92;50.04;;
59284;Laerm;45056;47.602;9.886;2023-07-02T03:15:32;42.81;39.34;57.06;;
59284;Laerm;45056;47.602;9.886;2023-07-02T03:18:19;43.70;40.71;52.36;;
59284;Laerm;45056;47.602;9.886;2023-07-02T03:21:29;44.85;40.23;53.17;;
59284;Laerm;45056;47.602;9.886;2023-07-02T03:24:25;42.91;39.81;47.41;;
59284;Laerm;45056;47.602;9.886;2023-07-02T03:27:15;42.44;39.21;52.75;;
59284;Laerm;45056;47.602;9.886;2023-07-02T03:29:43;44.36;39.92;49.73;;
59284;Laerm;45056;47.602;9.886;2023-07-02T03:32:40;45.38;41.14;54.53;;
59284;Laerm;45056;47.602;9.886;2023-07-02T03:35:29;46.98;42.29;58.05;;
59284;Laerm;45056;47.602;9.886;2023-07-02T03:38:36;46.72;42.88;54.23;;
59284;Laerm;45056;47.602;9.886;2023-07-02T03:41:40;46.22;41.22;55.88;;
59284;Laerm;45056;47.602;9.886;2023-07-02T03:45:04;44.69;40.43;57.07;;
59284;Laerm;45056;47.602;9.886;2023-07-02T03:48:09;44.97;39.81;55.01;;
59284;Laerm;45056;47.602;9.886;2023-07-02T03:50:39;47.77;43.94;59.32;;
59284;Laerm;45056;47.602;9.886;2023-07-02T03:53:08;46.85;43.72;56.47;;
59284;Laerm;45056;47.602;9.886;2023-07-02T03:55:36;47.85;42.41;61.86;;
59284;Laerm;45056;47.602;9.886;2023-07-02T04:07:06;49.81;40.71;65.08;;
59284;Laerm;45056;47.602;9.886;2023-07-02T04:10:06;44.74;39.70;56.41;;
59284;Laerm;45056;47.602;9.886;2023-07-02T04:13:02;44.16;39.58;59.67;;
59284;Laerm;45056;47.602;9.886;2023-07-02T04:15:48;44.62;39.58;55.62;;
59284;Laerm;45056;47.602;9.886;2023-07-02T04:18:36;43.42;38.52;51.81;;
59284;Laerm;45056;47.602;9.886;2023-07-02T04:21:22;46.23;39.58;59.98;;
59284;Laerm;45056;47.602;9.886;2023-07-02T04:24:22;43.49;40.89;48.20;;
59284;Laerm;45056;47.602;9.886;2023-07-02T04:27:35;44.66;39.46;56.53;;
59284;Laerm;45056;47.602;9.886;2023-07-02T04:30:42;43.67;38.95;56.01;;
59284;Laerm;45056;47.602;9.886;2023-07-02T04:33:39;43.25;40.13;49.08;;
59284;Laerm;45056;47.602;9.886;2023-07-02T04:39:20;45.41;41.14;54.48;;
59284;Laerm;45056;47.602;9.886;2023-07-02T04:41:48;47.70;42.03;58.37;;
59284;Laerm;45056;47.602;9.886;2023-07-02T04:44:19;48.47;43.49;56.51;;
59284;Laerm;45056;47.602;9.886;2023-07-02T04:46:49;47.55;42.65;59.99;;
59284;Laerm;45056;47.602;9.886;2023-07-02T04:49:17;46.57;42.53;58.69;;
59284;Laerm;45056;47.602;9.886;2023-07-02T04:51:51;47.73;42.59;54.43;;
59284;Laerm;45056;47.602;9.886;2023-07-02T04:54:25;46.09;43.04;52.78;;
59284;Laerm;45056;47.602;9.886;2023-07-02T04:57:11;47.49;41.96;58.07;;
59284;Laerm;45056;47.602;9.886;2023-07-02T04:59:42;45.57;41.46;53.03;;
59284;Laerm;45056;47.602;9.886;2023-07-02T05:02:24;48.53;41.82;63.81;;
59284;Laerm;45056;47.602;9.886;2023-07-02T05:04:56;43.87;40.53;51.66;;
59284;Laerm;45056;47.602;9.886;2023-07-02T05:07:34;43.60;40.33;53.91;;
59284;Laerm;45056;47.602;9.886;2023-07-02T05:10:55;44.41;40.33;58.98;;
59284;Laerm;45056;47.602;9.886;2023-07-02T05:14:00;44.26;40.80;56.89;;
59284;Laerm;45056;47.602;9.886;2023-07-02T05:16:37;44.01;40.33;54.37;;
59284;Laerm;45056;47.602;9.886;2023-07-02T05:19:05;46.01;39.81;57.90;;
59284;Laerm;45056;47.602;9.886;2023-07-02T05:21:33;44.88;39.58;58.08;;
59284;Laerm;45056;47.602;9.886;2023-07-02T05:24:01;43.38;39.21;55.02;;
59284;Laerm;45056;47.602;9.886;2023-07-02T05:26:37;44.39;38.95;54.78;;
59284;Laerm;45056;47.602;9.886;2023-07-02T05:29:09;42.55;38.81;53.40;;
59284;Laerm;45056;47.602;9.886;2023-07-02T05:32:10;45.61;38.95;60.70;;
59284;Laerm;45056;47.602;9.886;2023-07-02T05:34:57;42.23;38.52;50.29;;
59284;Laerm;45056;47.602;9.886;2023-07-02T05:37:32;43.30;38.81;58.63;;
59284;Laerm;45056;47.602;9.886;2023-07-02T05:40:15;44.35;38.37;58.17;;
59284;Laerm;45056;47.602;9.886;2023-07-02T05:43:23;42.70;38.60;54.17;;
59284;Laerm;45056;47.602;9.886;2023-07-02T05:46:08;45.52;38.52;58.36;;
59284;Laerm;45056;47.602;9.886;2023-07-02T05:54:09;46.65;38.37;60.46;;
59284;Laerm;45056;47.602;9.886;2023-07-02T05:56:33;43.57;37.53;55.97;;
59284;Laerm;45056;47.602;9.886;2023-07-02T05:59:46;42.86;37.12;57.57;;
59284;Laerm;45056;47.602;9.886;2023-07-02T06:02:47;47.83;38.74;57.85;;
59284;Laerm;45056;47.602;9.886;2023-07-02T06:05:15;42.04;36.20;55.58;;
59284;Laerm;45056;47.602;9.886;2023-07-02T06:07:43;42.72;36.91;56.77;;
59284;Laerm;45056;47.602;9.886;2023-07-02T06:10:11;42.34;38.37;53.86;;
59284;Laerm;45056;47.602;9.886;2023-07-02T06:12:57;43.70;37.70;57.15;;
59284;Laerm;45056;47.602;9.886;2023-07-02T06:15:42;42.99;36.69;63.30;;
59284;Laerm;45056;47.602;9.886;2023-07-02T06:18:13;43.38;37.32;55.93;;
59284;Laerm;45056;47.602;9.886;2023-07-02T06:20:43;45.92;38.05;61.86;;
59284;Laerm;45056;47.602;9.886;2023-07-02T06:23:14;42.18;36.91;52.62;;
59284;Laerm;45056;47.602;9.886;2023-07-02T06:25:43;44.96;36.69;58.47;;
59284;Laerm;45056;47.602;9.886;2023-07-02T06:28:13;46.15;36.91;61.17;;
59284;Laerm;45056;47.602;9.886;2023-07-02T06:30:47;44.41;37.32;61.63;;
59284;Laerm;45056;47.602;9.886;2023-07-02T06:33:16;43.51;36.69;56.39;;
59284;Laerm;45056;47.602;9.886;2023-07-02T06:35:44;42.11;37.87;57.53;;
59284;Laerm;45056;47.602;9.886;2023-07-02T06:38:12;50.05;37.70;64.86;;
59284;Laerm;45056;47.602;9.886;2023-07-02T06:41:28;44.92;38.05;56.93;;
59284;Laerm;45056;47.602;9.886;2023-07-02T06:44:44;43.09;36.69;55.31;;
59284;Laerm;45056;47.602;9.886;2023-07-02T06:47:21;45.12;37.12;58.26;;
59284;Laerm;45056;47.602;9.886;2023-07-02T06:49:52;45.24;37.52;57.07;;
59284;Laerm;45056;47.602;9.886;2023-07-02T06:52:29;41.77;37.32;50.11;;
59284;Laerm;45056;47.602;9.886;2023-07-02T06:54:57;42.56;36.91;55.42;;
59284;Laerm;45056;47.602;9.886;2023-07-02T06:57:26;42.51;37.52;53.16;;
59284;Laerm;45056;47.602;9.886;2023-07-02T07:00:00;44.37;38.05;57.24;;
59284;Laerm;45056;47.602;9.886;2023-07-02T07:02:31;46.26;38.95;58.42;;
59284;Laerm;45056;47.602;9.886;2023-07-02T07:05:00;44.58;38.21;54.99;;
59284;Laerm;45056;47.602;9.886;2023-07-02T07:07:32;44.41;38.05;57.45;;
59284;Laerm;45056;47.602;9.886;2023-07-02T07:10:07;44.11;37.32;54.77;;
59284;Laerm;45056;47.602;9.886;2023-07-02T07:12:40;44.52;38.52;61.08;;
59284;Laerm;45056;47.602;9.886;2023-07-02T07:15:09;46.16;39.34;59.22;;
59284;Laerm;45056;47.602;9.886;2023-07-02T07:17:38;44.76;38.67;57.96;;
59284;Laerm;45056;47.602;9.886;2023-07-02T07:20:07;45.00;38.95;59.09;;
59284;Laerm;45056;47.602;9.886;2023-07-02T07:22:36;44.29;36.77;55.61;;
59284;Laerm;45056;47.602;9.886;2023-07-02T07:25:05;44.06;38.52;54.57;;
59284;Laerm;45056;47.602;9.886;2023-07-02T07:27:33;44.05;37.70;55.13;;
59284;Laerm;45056;47.602;9.886;2023-07-02T07:30:07;45.15;38.37;57.34;;
59284;Laerm;45056;47.602;9.886;2023-07-02T07:32:35;47.61;40.53;56.54;;
59284;Laerm;45056;47.602;9.886;2023-07-02T07:35:05;47.84;39.08;57.28;;
59284;Laerm;45056;47.602;9.886;2023-07-02T07:40:01;43.01;38.05;52.36;;
59284;Laerm;45056;47.602;9.886;2023-07-02T07:42:32;44.53;37.70;55.61;;
59284;Laerm;45056;47.602;9.886;2023-07-02T07:45:01;45.30;37.52;62.26;;
59284;Laerm;45056;47.602;9.886;2023-07-02T07:47:30;56.27;44.35;66.45;;
59284;Laerm;45056;47.602;9.886;2023-07-02T07:49:58;55.63;40.98;65.27;;
59284;Laerm;45056;47.602;9.886;2023-07-02T07:52:29;45.15;39.11;59.14;;
59284;Laerm;45056;47.602;9.886;2023-07-02T07:54:58;51.70;39.21;63.68;;
59284;Laerm;45056;47.602;9.886;2023-07-02T07:57:26;62.48;52.77;71.45;;
59284;Laerm;45056;47.602;9.886;2023-07-02T07:59:54;61.86;46.35;69.80;;
59284;Laerm;45056;47.602;9.886;2023-07-02T08:02:23;49.26;40.23;57.89;;
59284;Laerm;45056;47.602;9.886;2023-07-02T08:04:51;51.40;41.75;59.99;;
59284;Laerm;45056;47.602;9.886;2023-07-02T08:12:09;45.47;38.21;55.57;;
59284;Laerm;45056;47.602;9.886;2023-07-02T08:18:57;43.79;39.08;55.05;;
59284;Laerm;45056;47.602;9.886;2023-07-02T08:21:24;44.72;38.67;54.31;;
59284;Laerm;45056;47.602;9.886;2023-07-02T08:23:52;43.80;37.88;55.00;;
59284;Laerm;45056;47.602;9.886;2023-07-02T08:26:20;44.98;39.08;54.43;;
59284;Laerm;45056;47.602;9.886;2023-07-02T08:28:50;44.27;37.70;55.46;;
59284;Laerm;45056;47.602;9.886;2023-07-02T08:31:18;44.54;38.37;55.51;;
59284;Laerm;45056;47.602;9.886;2023-07-02T08:33:46;43.99;38.05;54.39;;
59284;Laerm;45056;47.602;9.886;2023-07-02T08:36:14;43.51;37.88;53.64;;
59284;Laerm;45056;47.602;9.886;2023-07-02T08:38:42;44.18;38.95;53.06;;
59284;Laerm;45056;47.602;9.886;2023-07-02T08:41:10;44.38;38.87;55.73;;
59284;Laerm;45056;47.602;9.886;2023-07-02T08:43:40;44.35;38.81;55.50;;
59284;Laerm;45056;47.602;9.886;2023-07-02T08:46:10;45.30;38.95;56.40;;
59284;Laerm;45056;47.602;9.886;2023-07-02T08:48:39;46.02;40.03;55.31;;
59284;Laerm;45056;47.602;9.886;2023-07-02T08:51:08;44.60;39.08;53.95;;
59284;Laerm;45056;47.602;9.886;2023-07-02T08:53:36;51.75;38.81;67.56;;
59284;Laerm;45056;47.602;9.886;2023-07-02T08:56:04;45.85;39.81;59.45;;
59284;Laerm;45056;47.602;9.886;2023-07-02T08:58:32;53.63;39.08;67.23;;
59284;Laerm;45056;47.602;9.886;2023-07-02T09:01:05;47.90;40.71;58.59;;
59284;Laerm;45056;47.602;9.886;2023-07-02T09:03:36;45.34;39.81;57.46;;
59284;Laerm;45056;47.602;9.886;2023-07-02T09:06:05;45.35;40.33;55.56;;
59284;Laerm;45056;47.602;9.886;2023-07-02T09:08:34;43.40;39.11;52.42;;
59284;Laerm;45056;47.602;9.886;2023-07-02T09:11:10;44.17;39.46;52.66;;
59284;Laerm;45056;47.602;9.886;2023-07-02T09:13:46;44.42;38.95;55.61;;
59284;Laerm;45056;47.602;9.886;2023-07-02T09:16:23;44.46;40.13;53.96;;
59284;Laerm;45056;47.602;9.886;2023-07-02T09:19:03;44.99;39.92;53.23;;
59284;Laerm;45056;47.602;9.886;2023-07-02T09:21:40;45.54;39.46;55.50;;
59284;Laerm;45056;47.602;9.886;2023-07-02T09:24:16;44.88;38.95;54.92;;
59284;Laerm;45056;47.602;9.886;2023-07-02T09:26:46;48.24;41.30;74.32;;
59284;Laerm;45056;47.602;9.886;2023-07-02T09:29:21;47.44;40.33;60.72;;
59284;Laerm;45056;47.602;9.886;2023-07-02T09:31:50;45.26;39.81;55.11;;
59284;Laerm;45056;47.602;9.886;2023-07-02T09:34:19;45.60;38.37;61.14;;
59284;Laerm;45056;47.602;9.886;2023-07-02T09:36:47;44.68;38.81;55.20;;
59284;Laerm;45056;47.602;9.886;2023-07-02T09:39:20;46.09;40.53;56.74;;
59284;Laerm;45056;47.602;9.886;2023-07-02T09:41:50;45.49;39.08;56.37;;
59284;Laerm;45056;47.602;9.886;2023-07-02T09:44:19;45.65;40.03;56.28;;
59284;Laerm;45056;47.602;9.886;2023-07-02T09:46:58;46.05;39.46;70.82;;
59284;Laerm;45056;47.602;9.886;2023-07-02T09:49:32;45.69;40.23;56.95;;
59284;Laerm;45056;47.602;9.886;2023-07-02T09:52:05;48.12;40.33;61.42;;
59284;Laerm;45056;47.602;9.886;2023-07-02T09:54:33;44.68;39.46;56.75;;
59284;Laerm;45056;47.602;9.886;2023-07-02T09:57:03;48.55;40.36;67.45;;
59284;Laerm;45056;47.602;9.886;2023-07-02T09:59:33;44.04;39.34;54.68;;
59284;Laerm;45056;47.602;9.886;2023-07-02T10:02:01;48.23;38.52;57.68;;
59284;Laerm;45056;47.602;9.886;2023-07-02T10:04:40;59.10;43.63;68.95;;
59284;Laerm;45056;47.602;9.886;2023-07-02T10:07:09;52.61;38.67;67.24;;
59284;Laerm;45056;47.602;9.886;2023-07-02T10:09:40;46.64;38.37;62.08;;
59284;Laerm;45056;47.602;9.886;2023-07-02T10:12:19;45.09;39.70;55.49;;
59284;Laerm;45056;47.602;9.886;2023-07-02T10:14:50;44.92;38.52;55.75;;
59284;Laerm;45056;47.602;9.886;2023-07-02T10:17:26;44.65;38.67;57.25;;
59284;Laerm;45056;47.602;9.886;2023-07-02T10:19:58;43.91;39.34;54.82;;
59284;Laerm;45056;47.602;9.886;2023-07-02T10:22:27;45.42;37.88;61.05;;
59284;Laerm;45056;47.602;9.886;2023-07-02T10:24:58;45.73;38.95;55.34;;
59284;Laerm;45056;47.602;9.886;2023-07-02T10:27:34;43.87;38.52;52.28;;
59284;Laerm;45056;47.602;9.886;2023-07-02T10:30:04;46.02;39.34;57.90;;
59284;Laerm;45056;47.602;9.886;2023-07-02T10:32:34;45.85;39.21;56.73;;
59284;Laerm;45056;47.602;9.886;2023-07-02T10:35:14;43.66;38.52;59.65;;
59284;Laerm;45056;47.602;9.886;2023-07-02T10:37:44;46.54;38.37;59.89;;
59284;Laerm;45056;47.602;9.886;2023-07-02T10:40:13;43.89;39.70;56.79;;
59284;Laerm;45056;47.602;9.886;2023-07-02T10:42:48;45.66;38.67;56.25;;
59284;Laerm;45056;47.602;9.886;2023-07-02T10:45:18;46.68;38.37;58.34;;
59284;Laerm;45056;47.602;9.886;2023-07-02T10:47:47;43.80;38.05;58.25;;
59284;Laerm;45056;47.602;9.886;2023-07-02T10:50:19;47.56;40.13;63.66;;
59284;Laerm;45056;47.602;9.886;2023-07-02T10:52:48;47.06;39.92;62.11;;
59284;Laerm;45056;47.602;9.886;2023-07-02T10:55:17;46.09;39.58;57.20;;
59284;Laerm;45056;47.602;9.886;2023-07-02T10:57:47;45.61;39.58;56.28;;
59284;Laerm;45056;47.602;9.886;2023-07-02T11:00:19;45.98;38.37;55.78;;
59284;Laerm;45056;47.602;9.886;2023-07-02T11:02:48;57.12;39.46;88.01;;
59284;Laerm;45056;47.602;9.886;2023-07-02T11:05:18;61.52;33.44;85.50;;
59284;Laerm;45056;47.602;9.886;2023-07-02T11:08:24;50.33;41.06;81.41;;
59284;Laerm;45056;47.602;9.886;2023-07-02T11:11:06;44.93;40.03;53.25;;
59284;Laerm;45056;47.602;9.886;2023-07-02T11:13:34;47.66;40.71;65.04;;
59284;Laerm;45056;47.602;9.886;2023-07-02T11:16:02;45.83;40.98;55.13;;
59284;Laerm;45056;47.602;9.886;2023-07-02T11:18:31;46.80;41.06;59.72;;
59284;Laerm;45056;47.602;9.886;2023-07-02T11:21:10;45.72;41.30;55.72;;
59284;Laerm;45056;47.602;9.886;2023-07-02T11:23:38;43.52;39.58;53.95;;
59284;Laerm;45056;47.602;9.886;2023-07-02T11:26:06;45.46;41.30;55.36;;
59284;Laerm;45056;47.602;9.886;2023-07-02T11:28:34;45.17;41.14;57.68;;
59284;Laerm;45056;47.602;9.886;2023-07-02T11:31:02;44.99;40.23;58.00;;
59284;Laerm;45056;47.602;9.886;2023-07-02T11:33:34;44.37;39.70;55.31;;
59284;Laerm;45056;47.602;9.886;2023-07-02T11:36:05;45.63;40.43;55.80;;
59284;Laerm;45056;47.602;9.886;2023-07-02T11:38:36;51.59;40.13;65.62;;
59284;Laerm;45056;47.602;9.886;2023-07-02T11:41:04;45.46;40.23;57.83;;
59284;Laerm;45056;47.602;9.886;2023-07-02T11:43:32;43.93;39.46;56.55;;
59284;Laerm;45056;47.602;9.886;2023-07-02T11:46:00;45.73;40.43;57.37;;
59284;Laerm;45056;47.602;9.886;2023-07-02T11:48:28;46.77;39.81;56.89;;
59284;Laerm;45056;47.602;9.886;2023-07-02T11:50:56;46.67;39.08;60.81;;
59284;Laerm;45056;47.602;9.886;2023-07-02T11:53:26;49.94;39.58;67.36;;
59284;Laerm;45056;47.602;9.886;2023-07-02T11:55:54;45.34;40.13;54.34;;
59284;Laerm;45056;47.602;9.886;2023-07-02T11:58:22;45.11;40.13;53.84;;
59284;Laerm;45056;47.602;9.886;2023-07-02T12:00:49;46.08;39.58;55.46;;
59284;Laerm;45056;47.602;9.886;2023-07-02T12:03:17;44.67;39.34;54.21;;
59284;Laerm;45056;47.602;9.886;2023-07-02T12:05:45;44.65;40.23;55.94;;
59284;Laerm;45056;47.602;9.886;2023-07-02T12:08:14;46.01;39.81;57.84;;
59284;Laerm;45056;47.602;9.886;2023-07-02T12:10:43;47.42;41.22;66.56;;
59284;Laerm;45056;47.602;9.886;2023-07-02T12:13:11;46.12;40.53;60.29;;
59284;Laerm;45056;47.602;9.886;2023-07-02T12:15:40;45.55;40.62;56.21;;
59284;Laerm;45056;47.602;9.886;2023-07-02T12:18:09;46.11;39.92;64.60;;
59284;Laerm;45056;47.602;9.886;2023-07-02T12:20:39;45.23;40.13;56.81;;
59284;Laerm;45056;47.602;9.886;2023-07-02T12:23:07;45.54;40.53;56.69;;
59284;Laerm;45056;47.602;9.886;2023-07-02T12:25:36;45.83;40.13;54.78;;
59284;Laerm;45056;47.602;9.886;2023-07-02T12:28:06;45.30;40.33;55.85;;
59284;Laerm;45056;47.602;9.886;2023-07-02T12:30:34;48.26;41.75;59.17;;
59284;Laerm;45056;47.602;9.886;2023-07-02T12:33:02;46.41;40.80;54.55;;
59284;Laerm;45056;47.602;9.886;2023-07-02T12:35:30;46.48;42.09;60.02;;
59284;Laerm;45056;47.602;9.886;2023-07-02T12:37:58;45.90;40.53;54.02;;
59284;Laerm;45056;47.602;9.886;2023-07-02T12:40:26;47.32;39.34;58.89;;
59284;Laerm;45056;47.602;9.886;2023-07-02T12:42:54;45.76;39.81;56.71;;
59284;Laerm;45056;47.602;9.886;2023-07-02T12:45:24;46.95;41.14;56.05;;
59284;Laerm;45056;47.602;9.886;2023-07-02T12:47:52;44.58;38.81;52.62;;
59284;Laerm;45056;47.602;9.886;2023-07-02T12:50:20;44.58;39.92;53.62;;
59284;Laerm;45056;47.602;9.886;2023-07-02T12:52:48;47.28;40.03;62.90;;
59284;Laerm;45056;47.602;9.886;2023-07-02T12:55:16;44.29;40.13;54.41;;
59284;Laerm;45056;47.602;9.886;2023-07-02T12:57:44;44.33;39.58;53.73;;
59284;Laerm;45056;47.602;9.886;2023-07-02T13:00:13;48.48;40.53;62.34;;
59284;Laerm;45056;47.602;9.886;2023-07-02T13:02:42;45.18;40.13;55.96;;
59284;Laerm;45056;47.602;9.886;2023-07-02T13:05:10;46.43;40.71;62.38;;
59284;Laerm;45056;47.602;9.886;2023-07-02T13:07:38;45.09;39.21;54.73;;
59284;Laerm;45056;47.602;9.886;2023-07-02T13:10:07;46.71;39.92;67.92;;
59284;Laerm;45056;47.602;9.886;2023-07-02T13:12:35;45.44;40.62;58.34;;
59284;Laerm;45056;47.602;9.886;2023-07-02T13:15:04;45.27;40.13;58.02;;
59284;Laerm;45056;47.602;9.886;2023-07-02T13:17:32;45.39;40.89;56.18;;
59284;Laerm;45056;47.602;9.886;2023-07-02T13:20:01;45.75;39.81;61.85;;
59284;Laerm;45056;47.602;9.886;2023-07-02T13:22:29;45.53;39.81;56.27;;
59284;Laerm;45056;47.602;9.886;2023-07-02T13:24:57;44.86;39.34;54.60;;
59284;Laerm;45056;47.602;9.886;2023-07-02T13:27:25;43.94;39.70;53.74;;
59284;Laerm;45056;47.602;9.886;2023-07-02T13:29:53;44.60;39.81;54.31;;
59284;Laerm;45056;47.602;9.886;2023-07-02T13:32:21;44.98;39.46;58.73;;
59284;Laerm;45056;47.602;9.886;2023-07-02T13:34:49;44.69;40.43;53.48;;
59284;Laerm;45056;47.602;9.886;2023-07-02T13:37:19;45.05;39.70;55.91;;
59284;Laerm;45056;47.602;9.886;2023-07-02T13:39:48;44.86;39.70;54.81;;
59284;Laerm;45056;47.602;9.886;2023-07-02T13:42:17;44.60;39.08;54.01;;
59284;Laerm;45056;47.602;9.886;2023-07-02T13:44:45;43.87;38.95;54.46;;
59284;Laerm;45056;47.602;9.886;2023-07-02T13:47:13;45.77;39.46;59.15;;
59284;Laerm;45056;47.602;9.886;2023-07-02T13:49:41;44.14;38.95;58.42;;
59284;Laerm;45056;47.602;9.886;2023-07-02T13:52:10;46.00;40.43;57.55;;
59284;Laerm;45056;47.602;9.886;2023-07-02T13:54:39;46.16;40.03;57.83;;
59284;Laerm;45056;47.602;9.886;2023-07-02T13:57:07;47.71;40.80;61.18;;
59284;Laerm;45056;47.602;9.886;2023-07-02T13:59:37;44.41;39.46;56.87;;
59284;Laerm;45056;47.602;9.886;2023-07-02T14:02:05;47.66;41.06;58.22;;
59284;Laerm;45056;47.602;9.886;2023-07-02T14:04:33;48.28;40.03;66.74;;
59284;Laerm;45056;47.602;9.886;2023-07-02T14:07:03;46.50;40.62;61.34;;
59284;Laerm;45056;47.602;9.886;2023-07-02T14:09:31;47.33;41.06;59.97;;
59284;Laerm;45056;47.602;9.886;2023-07-02T14:11:59;46.65;39.58;63.64;;
59284;Laerm;45056;47.602;9.886;2023-07-02T14:14:27;43.67;39.08;50.98;;
59284;Laerm;45056;47.602;9.886;2023-07-02T14:16:57;44.82;40.33;54.18;;
59284;Laerm;45056;47.602;9.886;2023-07-02T14:19:25;45.22;40.71;59.98;;
59284;Laerm;45056;47.602;9.886;2023-07-02T14:21:53;45.61;38.87;59.31;;
59284;Laerm;45056;47.602;9.886;2023-07-02T14:24:22;46.01;39.46;60.88;;
59284;Laerm;45056;47.602;9.886;2023-07-02T14:26:50;45.13;40.33;56.25;;
59284;Laerm;45056;47.602;9.886;2023-07-02T14:29:18;46.22;40.13;61.00;;
59284;Laerm;45056;47.602;9.886;2023-07-02T14:31:46;49.52;40.13;69.57;;
59284;Laerm;45056;47.602;9.886;2023-07-02T14:34:15;45.77;39.58;57.45;;
59284;Laerm;45056;47.602;9.886;2023-07-02T14:36:43;45.53;40.23;54.99;;
59284;Laerm;45056;47.602;9.886;2023-07-02T14:39:12;49.85;40.53;64.15;;
59284;Laerm;45056;47.602;9.886;2023-07-02T14:41:40;44.66;39.46;51.70;;
59284;Laerm;45056;47.602;9.886;2023-07-02T14:44:08;44.73;39.81;57.03;;
59284;Laerm;45056;47.602;9.886;2023-07-02T14:46:36;47.04;40.80;65.36;;
59284;Laerm;45056;47.602;9.886;2023-07-02T14:49:04;49.49;40.33;74.32;;
59284;Laerm;45056;47.602;9.886;2023-07-02T14:51:34;44.81;39.46;56.78;;
59284;Laerm;45056;47.602;9.886;2023-07-02T14:54:02;44.83;39.46;58.39;;
59284;Laerm;45056;47.602;9.886;2023-07-02T14:56:33;45.77;40.23;58.84;;
59284;Laerm;45056;47.602;9.886;2023-07-02T14:59:02;45.90;40.23;55.92;;
59284;Laerm;45056;47.602;9.886;2023-07-02T15:01:30;47.88;41.61;58.03;;
59284;Laerm;45056;47.602;9.886;2023-07-02T15:03:58;47.92;41.46;63.80;;
59284;Laerm;45056;47.602;9.886;2023-07-02T15:06:26;47.22;40.43;60.76;;
59284;Laerm;45056;47.602;9.886;2023-07-02T15:08:56;44.12;39.21;57.05;;
59284;Laerm;45056;47.602;9.886;2023-07-02T15:11:25;49.08;40.71;64.49;;
59284;Laerm;45056;47.602;9.886;2023-07-02T15:13:54;45.49;39.58;61.19;;
59284;Laerm;45056;47.602;9.886;2023-07-02T15:16:24;45.35;39.70;57.83;;
59284;Laerm;45056;47.602;9.886;2023-07-02T15:18:52;47.79;40.43;67.12;;
59284;Laerm;45056;47.602;9.886;2023-07-02T15:21:21;45.69;39.08;56.47;;
59284;Laerm;45056;47.602;9.886;2023-07-02T15:23:50;46.12;39.46;62.95;;
59284;Laerm;45056;47.602;9.886;2023-07-02T15:26:19;45.62;40.13;57.27;;
59284;Laerm;45056;47.602;9.886;2023-07-02T15:28:48;47.32;41.96;60.44;;
59284;Laerm;45056;47.602;9.886;2023-07-02T15:31:16;46.30;41.03;60.83;;
59284;Laerm;45056;47.602;9.886;2023-07-02T15:33:44;45.08;41.11;55.26;;
59284;Laerm;45056;47.602;9.886;2023-07-02T15:36:12;46.77;40.89;62.38;;
59284;Laerm;45056;47.602;9.886;2023-07-02T15:38:40;45.51;39.58;58.12;;
59284;Laerm;45056;47.602;9.886;2023-07-02T15:41:11;49.20;40.62;64.15;;
59284;Laerm;45056;47.602;9.886;2023-07-02T15:43:43;46.94;39.92;60.06;;
59284;Laerm;45056;47.602;9.886;2023-07-02T15:46:16;54.06;40.33;64.93;;
59284;Laerm;45056;47.602;9.886;2023-07-02T15:48:44;59.15;49.30;67.23;;
59284;Laerm;45056;47.602;9.886;2023-07-02T15:51:13;57.45;40.71;65.36;;
59284;Laerm;45056;47.602;9.886;2023-07-02T15:53:41;44.90;39.81;54.14;;
59284;Laerm;45056;47.602;9.886;2023-07-02T15:56:10;46.26;40.33;58.88;;
59284;Laerm;45056;47.602;9.886;2023-07-02T15:58:39;44.31;40.53;53.98;;
59284;Laerm;45056;47.602;9.886;2023-07-02T16:01:12;47.17;39.46;57.83;;
59284;Laerm;45056;47.602;9.886;2023-07-02T16:03:41;45.02;40.98;54.63;;
59284;Laerm;45056;47.602;9.886;2023-07-02T16:06:12;46.76;40.43;59.51;;
59284;Laerm;45056;47.602;9.886;2023-07-02T16:08:41;45.52;39.34;54.35;;
59284;Laerm;45056;47.602;9.886;2023-07-02T16:11:11;49.47;39.57;69.63;;
59284;Laerm;45056;47.602;9.886;2023-07-02T16:13:42;48.13;39.92;68.27;;
59284;Laerm;45056;47.602;9.886;2023-07-02T16:16:11;49.07;38.67;66.30;;
59284;Laerm;45056;47.602;9.886;2023-07-02T16:18:39;65.72;47.86;75.69;;
59284;Laerm;45056;47.602;9.886;2023-07-02T16:21:07;61.60;41.75;73.95;;
59284;Laerm;45056;47.602;9.886;2023-07-02T16:23:35;61.70;42.35;74.69;;
59284;Laerm;45056;47.602;9.886;2023-07-02T16:26:06;70.23;63.38;78.71;;
59284;Laerm;45056;47.602;9.886;2023-07-02T16:28:37;68.71;52.68;76.57;;
59284;Laerm;45056;47.602;9.886;2023-07-02T16:31:09;51.07;38.74;65.28;;
59284;Laerm;45056;47.602;9.886;2023-07-02T16:33:37;44.98;39.46;53.03;;
59284;Laerm;45056;47.602;9.886;2023-07-02T16:36:09;47.65;40.13;63.30;;